createdAt,value
2023-03-08T00:00:47.944Z,64.18
2023-03-08T00:03:15.174Z,63.86
2023-03-08T00:05:42.127Z,65.82
2023-03-08T00:08:08.803Z,65.56
2023-03-08T00:10:35.239Z,66.39
2023-03-08T00:13:01.644Z,66.44
2023-03-08T00:15:28.030Z,66.71
2023-03-08T00:17:54.448Z,65.51
2023-03-08T00:20:21.954Z,65.78
2023-03-08T00:22:48.392Z,66.74
2023-03-08T00:25:16.489Z,66.22
2023-03-08T00:27:43.115Z,66.88
2023-03-08T00:30:11.868Z,66.58
2023-03-08T00:32:38.322Z,66.95
2023-03-08T00:35:05.167Z,66.92
2023-03-08T00:37:31.789Z,66.64
2023-03-08T00:40:09.925Z,68.58
2023-03-08T00:42:36.332Z,68.20
2023-03-08T00:45:02.848Z,68.38
2023-03-08T00:47:29.308Z,68.22
2023-03-08T00:49:55.716Z,66.90
2023-03-08T00:52:22.144Z,65.95
2023-03-08T00:54:48.576Z,66.70
2023-03-08T00:57:16.317Z,67.41
2023-03-08T00:59:42.711Z,67.30
2023-03-08T01:02:09.111Z,68.03
2023-03-08T01:04:35.481Z,66.07
2023-03-08T01:07:01.904Z,67.23
2023-03-08T01:09:46.661Z,67.18
2023-03-08T01:12:13.050Z,66.69
2023-03-08T01:14:39.478Z,65.79
2023-03-08T01:17:05.915Z,66.92
2023-03-08T01:19:32.692Z,66.58
2023-03-08T01:21:59.104Z,65.87
2023-03-08T01:24:25.484Z,65.80
2023-03-08T01:26:53.755Z,65.86
2023-03-08T01:29:20.143Z,66.20
2023-03-08T01:31:57.546Z,64.02
2023-03-08T01:34:23.967Z,65.39
2023-03-08T01:36:50.375Z,63.94
2023-03-08T01:39:16.771Z,65.64
2023-03-08T01:41:43.181Z,65.11
2023-03-08T01:44:22.589Z,65.14
2023-03-08T01:46:49.966Z,65.12
2023-03-08T01:49:16.302Z,64.59
2023-03-08T01:51:57.293Z,65.28
2023-03-08T01:54:28.603Z,65.48
2023-03-08T01:57:00.751Z,66.01
2023-03-08T01:59:28.057Z,66.33
2023-03-08T02:02:03.555Z,66.02
2023-03-08T02:04:29.937Z,66.63
2023-03-08T02:06:56.358Z,67.14
2023-03-08T02:09:23.390Z,65.70
2023-03-08T02:11:55.291Z,66.15
2023-03-08T02:14:21.752Z,67.30
2023-03-08T02:16:48.139Z,66.93
2023-03-08T02:19:22.233Z,65.85
2023-03-08T02:21:48.688Z,66.99
2023-03-08T02:24:23.303Z,66.15
2023-03-08T02:26:59.545Z,67.55
2023-03-08T02:29:25.926Z,67.54
2023-03-08T02:31:52.332Z,67.57
2023-03-08T02:34:18.696Z,67.04
2023-03-08T02:36:45.084Z,67.01
2023-03-08T02:39:11.536Z,66.35
2023-03-08T02:41:37.909Z,67.89
2023-03-08T02:44:04.510Z,68.34
2023-03-08T02:46:30.953Z,68.15
2023-03-08T02:48:57.331Z,67.80
2023-03-08T02:51:23.761Z,67.95
2023-03-08T02:53:50.142Z,67.57
2023-03-08T02:56:16.602Z,67.50
2023-03-08T02:58:43.108Z,67.91
2023-03-08T03:01:13.370Z,68.48
2023-03-08T03:03:40.599Z,69.12
2023-03-08T03:06:19.012Z,67.87
2023-03-08T03:08:46.091Z,68.46
2023-03-08T03:11:17.781Z,68.67
2023-03-08T03:13:44.848Z,68.52
2023-03-08T03:16:15.118Z,69.62
2023-03-08T03:18:47.565Z,69.91
2023-03-08T03:21:14.436Z,70.17
2023-03-08T03:23:41.857Z,69.77
2023-03-08T03:26:11.298Z,69.84
2023-03-08T03:28:37.742Z,70.34
2023-03-08T03:31:09.696Z,70.43
2023-03-08T03:33:36.396Z,70.30
2023-03-08T03:36:03.540Z,71.17
2023-03-08T03:38:30.378Z,70.92
2023-03-08T03:41:01.782Z,71.71
2023-03-08T03:43:28.405Z,72.47
2023-03-08T03:45:58.955Z,74.02
2023-03-08T03:48:25.434Z,73.14
2023-03-08T03:51:03.425Z,74.00
2023-03-08T03:53:31.358Z,75.08
2023-03-08T03:56:05.996Z,75.32
2023-03-08T03:58:32.704Z,74.69
2023-03-08T04:00:59.398Z,75.42
2023-03-08T04:03:26.291Z,76.44
2023-03-08T04:05:53.248Z,77.22
2023-03-08T04:08:19.644Z,77.33
2023-03-08T04:10:46.084Z,77.17
2023-03-08T04:13:12.814Z,77.73
2023-03-08T04:15:39.209Z,78.60
2023-03-08T04:18:05.858Z,78.64
2023-03-08T04:20:32.232Z,78.74
2023-03-08T04:22:58.658Z,79.55
2023-03-08T04:25:25.090Z,80.28
2023-03-08T04:28:10.810Z,80.20
2023-03-08T04:30:37.331Z,80.50
2023-03-08T04:33:03.710Z,80.41
2023-03-08T04:35:30.201Z,80.69
2023-03-08T04:37:56.649Z,79.35
2023-03-08T04:40:23.138Z,77.96
2023-03-08T04:42:49.617Z,79.35
2023-03-08T04:45:22.320Z,79.79
2023-03-08T04:47:48.719Z,80.80
2023-03-08T04:50:15.880Z,80.45
2023-03-08T04:52:42.274Z,79.44
2023-03-08T04:55:08.880Z,80.28
2023-03-08T04:57:35.354Z,81.85
2023-03-08T05:00:01.750Z,82.16
2023-03-08T05:02:28.149Z,81.25
2023-03-08T05:05:04.364Z,82.30
2023-03-08T05:07:30.703Z,85.76
2023-03-08T05:09:57.094Z,87.35
2023-03-08T05:12:23.476Z,86.35
2023-03-08T05:14:49.991Z,87.25
2023-03-08T05:17:16.575Z,89.00
2023-03-08T05:19:42.981Z,88.79
2023-03-08T05:22:37.206Z,87.75
2023-03-08T05:25:11.533Z,88.34
2023-03-08T05:27:37.945Z,89.55
2023-03-08T05:30:05.591Z,90.43
2023-03-08T05:32:32.719Z,92.29
2023-03-08T05:34:59.143Z,93.91
2023-03-08T05:37:27.400Z,95.44
2023-03-08T05:39:54.125Z,97.30
2023-03-08T05:42:20.525Z,97.72
2023-03-08T05:44:46.934Z,98.08
2023-03-08T05:47:13.382Z,96.51
2023-03-08T05:49:52.176Z,97.84
2023-03-08T05:52:18.605Z,98.40
2023-03-08T05:54:45.017Z,98.28
2023-03-08T05:57:11.496Z,98.39
2023-03-08T05:59:37.898Z,97.75
2023-03-08T06:02:04.356Z,97.59
2023-03-08T06:04:43.149Z,97.22
2023-03-08T06:07:09.604Z,97.49
2023-03-08T06:09:35.992Z,96.22
2023-03-08T06:12:02.415Z,95.84
2023-03-08T06:14:28.809Z,96.44
2023-03-08T06:16:55.270Z,95.66
2023-03-08T06:19:21.710Z,94.98
2023-03-08T06:21:48.129Z,95.92
2023-03-08T06:24:14.505Z,94.75
2023-03-08T06:26:40.900Z,94.92
2023-03-08T06:29:17.567Z,93.30
2023-03-08T06:31:49.190Z,93.72
2023-03-08T06:34:22.722Z,94.93
2023-03-08T06:36:49.180Z,93.56
2023-03-08T06:39:15.601Z,94.17
2023-03-08T06:41:42.056Z,94.70
2023-03-08T06:44:08.433Z,95.10
2023-03-08T06:46:34.906Z,94.83
2023-03-08T06:49:04.208Z,92.88
2023-03-08T06:51:32.688Z,92.93
2023-03-08T06:53:59.088Z,92.12
2023-03-08T06:56:27.198Z,91.34
2023-03-08T06:58:53.715Z,90.15
2023-03-08T07:01:20.219Z,88.69
2023-03-08T07:03:59.801Z,89.44
2023-03-08T07:06:26.286Z,88.82
2023-03-08T07:08:52.664Z,88.99
2023-03-08T07:11:19.120Z,88.04
2023-03-08T07:13:45.505Z,90.31
2023-03-08T07:16:13.545Z,89.30
2023-03-08T07:18:40.929Z,89.31
2023-03-08T07:21:07.740Z,88.21
2023-03-08T07:23:34.213Z,87.43
2023-03-08T07:26:04.606Z,86.72
2023-03-08T07:28:31.001Z,86.04
2023-03-08T07:31:13.081Z,85.28
2023-03-08T07:33:49.589Z,85.15
2023-03-08T07:36:16.040Z,84.49
2023-03-08T07:38:42.491Z,83.95
2023-03-08T07:41:08.938Z,83.64
2023-03-08T07:43:35.407Z,80.43
2023-03-08T07:46:02.760Z,79.46
2023-03-08T07:48:29.859Z,79.57
2023-03-08T07:51:02.338Z,78.76
2023-03-08T07:53:29.386Z,77.58
2023-03-08T07:55:57.695Z,77.58
2023-03-08T07:58:24.073Z,77.48
2023-03-08T08:00:50.458Z,76.88
2023-03-08T08:03:17.057Z,76.51
2023-03-08T08:05:43.724Z,77.80
2023-03-08T08:08:13.753Z,77.45
2023-03-08T08:10:43.253Z,75.94
2023-03-08T08:13:11.766Z,75.28
2023-03-08T08:15:38.187Z,73.39
2023-03-08T08:18:04.814Z,73.45
2023-03-08T08:20:31.268Z,72.90
2023-03-08T08:23:01.021Z,73.20
2023-03-08T08:25:27.558Z,73.11
2023-03-08T08:27:54.008Z,73.00
2023-03-08T08:30:20.610Z,71.83
2023-03-08T08:32:47.181Z,70.41
2023-03-08T08:35:13.706Z,70.88
2023-03-08T08:37:40.096Z,71.30
2023-03-08T08:40:10.579Z,71.41
2023-03-08T08:42:37.101Z,70.78
2023-03-08T08:45:03.934Z,70.46
2023-03-08T08:47:30.461Z,70.97
2023-03-08T08:49:56.862Z,70.84
2023-03-08T08:52:23.429Z,70.39
2023-03-08T08:54:52.979Z,70.62
2023-03-08T08:57:19.428Z,70.23
2023-03-08T08:59:46.445Z,68.63
2023-03-08T09:02:12.948Z,68.69
2023-03-08T09:04:39.479Z,68.67
2023-03-08T09:07:07.384Z,68.25
2023-03-08T09:09:33.804Z,67.99
2023-03-08T09:12:00.197Z,68.19
2023-03-08T09:14:26.568Z,67.77
2023-03-08T09:16:53.209Z,68.45
2023-03-08T09:19:19.767Z,68.16
2023-03-08T09:21:46.333Z,68.22
2023-03-08T09:24:13.212Z,67.80
2023-03-08T09:26:42.616Z,67.46
2023-03-08T09:29:11.008Z,67.35
2023-03-08T09:31:38.814Z,67.93
2023-03-08T09:34:17.530Z,67.54
2023-03-08T09:36:44.019Z,68.94
2023-03-08T09:39:13.036Z,68.55
2023-03-08T09:41:45.546Z,67.78
2023-03-08T09:44:34.699Z,67.54
2023-03-08T09:47:15.161Z,62.42
2023-03-08T09:49:55.159Z,61.28
2023-03-08T09:52:48.586Z,61.29
2023-03-08T09:55:30.387Z,59.67
2023-03-08T09:58:02.764Z,60.13
2023-03-08T10:00:33.966Z,59.64
2023-03-08T10:03:22.042Z,59.85
2023-03-08T10:06:21.648Z,59.99
2023-03-08T10:08:49.774Z,60.40
2023-03-08T10:11:36.398Z,61.13
2023-03-08T10:14:32.234Z,63.29
2023-03-08T10:17:10.177Z,61.81
2023-03-08T10:19:57.580Z,62.31
2023-03-08T10:22:30.561Z,62.37
2023-03-08T10:25:23.066Z,59.06
2023-03-08T10:27:53.009Z,60.46
2023-03-08T10:30:23.461Z,57.03
2023-03-08T10:32:56.057Z,57.76
2023-03-08T10:35:39.492Z,57.03
2023-03-08T10:38:16.133Z,56.48
2023-03-08T10:40:44.760Z,57.25
2023-03-08T10:43:26.508Z,57.17
2023-03-08T10:46:02.502Z,58.66
2023-03-08T10:48:29.320Z,58.59
2023-03-08T10:51:07.247Z,58.33
2023-03-08T10:53:33.703Z,58.67
2023-03-08T10:56:01.488Z,58.97
2023-03-08T10:58:40.189Z,60.64
2023-03-08T11:01:22.520Z,60.88
2023-03-08T11:04:16.005Z,61.18
2023-03-08T11:07:24.205Z,61.10
2023-03-08T11:09:50.675Z,60.31
2023-03-08T11:12:27.415Z,61.65
2023-03-08T11:14:53.983Z,62.04
2023-03-08T11:17:24.406Z,60.56
2023-03-08T11:20:13.740Z,62.44
2023-03-08T11:22:49.002Z,63.58
2023-03-08T11:25:25.115Z,65.30
2023-03-08T11:28:17.919Z,67.18
2023-03-08T11:31:05.627Z,66.91
2023-03-08T11:33:41.912Z,67.49
2023-03-08T11:36:41.269Z,68.69
2023-03-08T11:39:38.301Z,70.68
2023-03-08T11:42:21.000Z,70.17
2023-03-08T11:44:53.280Z,70.99
2023-03-08T11:47:58.079Z,71.99
2023-03-08T11:50:56.752Z,74.33
2023-03-08T11:53:35.543Z,76.16
2023-03-08T11:56:27.000Z,76.35
2023-03-08T11:59:10.026Z,80.06
2023-03-08T12:01:49.618Z,79.27
2023-03-08T12:04:52.038Z,77.64
2023-03-08T12:07:30.296Z,77.71
2023-03-08T12:10:09.049Z,76.63
2023-03-08T12:12:43.813Z,77.99
2023-03-08T12:15:51.493Z,77.58
2023-03-08T12:18:29.539Z,76.65
2023-03-08T12:21:07.817Z,76.86
2023-03-08T12:23:51.386Z,77.78
2023-03-08T12:26:24.904Z,79.82
2023-03-08T12:29:00.495Z,78.61
2023-03-08T12:31:29.565Z,80.69
2023-03-08T12:33:58.246Z,78.83
2023-03-08T12:36:44.169Z,79.34
2023-03-08T12:39:29.391Z,80.41
2023-03-08T12:42:09.212Z,77.97
2023-03-08T12:44:38.869Z,77.79
2023-03-08T12:47:14.294Z,74.93
2023-03-08T12:49:49.892Z,77.16
2023-03-08T12:52:19.493Z,77.59
2023-03-08T12:55:01.044Z,79.14
2023-03-08T12:57:52.364Z,78.67
2023-03-08T13:00:24.811Z,79.91
2023-03-08T13:03:14.163Z,80.30
2023-03-08T13:05:45.252Z,81.29
2023-03-08T13:08:14.333Z,81.98
2023-03-08T13:10:49.893Z,85.32
2023-03-08T13:13:44.421Z,84.76
2023-03-08T13:16:30.177Z,86.45
2023-03-08T13:19:16.643Z,85.19
2023-03-08T13:22:24.141Z,81.46
2023-03-08T13:25:04.087Z,80.88
2023-03-08T13:27:54.512Z,79.62
2023-03-08T13:30:47.019Z,80.96
2023-03-08T13:33:20.437Z,82.57
2023-03-08T13:36:15.366Z,84.25
2023-03-08T13:38:41.774Z,82.56
2023-03-08T13:41:09.363Z,80.95
2023-03-08T13:43:36.534Z,77.61
2023-03-08T13:46:10.473Z,75.94
2023-03-08T13:48:37.483Z,76.20
2023-03-08T13:51:07.268Z,73.74
2023-03-08T13:53:37.537Z,73.05
2023-03-08T13:56:06.944Z,72.91
2023-03-08T13:58:36.838Z,73.45
2023-03-08T14:01:24.557Z,72.43
2023-03-08T14:04:16.364Z,72.83
2023-03-08T14:06:49.726Z,71.92
2023-03-08T14:09:24.030Z,71.42
2023-03-08T14:12:00.963Z,70.68
2023-03-08T14:14:34.035Z,71.07
2023-03-08T14:17:00.985Z,71.97
2023-03-08T14:19:35.204Z,69.79
2023-03-08T14:22:11.551Z,69.02
2023-03-08T14:25:15.651Z,69.78
2023-03-08T14:27:45.221Z,70.06
2023-03-08T14:30:24.542Z,70.32
2023-03-08T14:33:13.887Z,70.75
2023-03-08T14:35:45.261Z,69.43
2023-03-08T14:38:28.578Z,69.62
2023-03-08T14:41:06.349Z,70.29
2023-03-08T14:43:33.064Z,70.61
2023-03-08T14:46:06.565Z,70.00
2023-03-08T14:48:37.413Z,70.13
2023-03-08T14:51:06.910Z,70.34
2023-03-08T14:53:41.534Z,70.93
2023-03-08T14:56:14.716Z,71.77
2023-03-08T14:58:46.180Z,72.10
2023-03-08T15:01:28.389Z,71.27
2023-03-08T15:04:00.127Z,70.99
2023-03-08T15:06:32.091Z,71.23
2023-03-08T15:09:01.096Z,73.57
2023-03-08T15:11:31.497Z,72.72
2023-03-08T15:14:01.106Z,72.66
2023-03-08T15:16:28.675Z,73.44
2023-03-08T15:18:57.141Z,73.30
2023-03-08T15:21:28.366Z,72.41
2023-03-08T15:23:56.412Z,72.88
2023-03-08T15:26:34.126Z,72.76
2023-03-08T15:29:03.471Z,72.14
2023-03-08T15:31:36.189Z,71.35
2023-03-08T15:34:02.796Z,71.88
2023-03-08T15:36:32.517Z,71.42
2023-03-08T15:38:59.719Z,70.94
2023-03-08T15:41:28.244Z,70.33
2023-03-08T15:43:59.758Z,69.59
2023-03-08T15:46:28.236Z,71.33
2023-03-08T15:48:54.765Z,70.50
2023-03-08T15:51:24.187Z,71.26
2023-03-08T15:53:50.639Z,70.74
2023-03-08T15:56:22.650Z,69.96
2023-03-08T15:58:50.029Z,71.74
2023-03-08T16:01:40.237Z,71.45
2023-03-08T16:04:15.778Z,71.52
2023-03-08T16:06:50.399Z,71.02
2023-03-08T16:09:18.789Z,69.88
2023-03-08T16:11:49.399Z,70.77
2023-03-08T16:14:18.999Z,69.54
2023-03-08T16:16:46.441Z,69.96
2023-03-08T16:19:12.955Z,69.93
2023-03-08T16:21:39.442Z,69.83
2023-03-08T16:24:06.069Z,68.60
2023-03-08T16:26:32.497Z,68.43
2023-03-08T16:28:58.913Z,68.32
2023-03-08T16:31:35.748Z,68.19
2023-03-08T16:34:03.484Z,67.06
2023-03-08T16:36:29.932Z,67.55
2023-03-08T16:39:06.536Z,67.48
2023-03-08T16:41:34.371Z,68.69
2023-03-08T16:44:00.929Z,69.50
2023-03-08T16:46:27.871Z,70.74
2023-03-08T16:49:05.479Z,70.48
2023-03-08T16:51:32.483Z,72.82
2023-03-08T16:53:58.903Z,73.31
2023-03-08T16:56:28.045Z,75.47
2023-03-08T16:58:58.770Z,74.62
2023-03-08T17:01:30.524Z,78.00
2023-03-08T17:03:59.451Z,78.87
2023-03-08T17:06:28.800Z,79.42
2023-03-08T17:08:59.877Z,78.57
2023-03-08T17:11:28.975Z,77.89
2023-03-08T17:13:59.329Z,77.50
2023-03-08T17:16:35.735Z,79.28
2023-03-08T17:19:05.366Z,81.93
2023-03-08T17:21:37.957Z,78.56
2023-03-08T17:24:11.011Z,79.03
2023-03-08T17:26:50.103Z,77.77
2023-03-08T17:29:39.442Z,79.40
2023-03-08T17:32:11.004Z,80.38
2023-03-08T17:34:37.413Z,77.70
2023-03-08T17:37:03.895Z,78.10
2023-03-08T17:39:38.446Z,79.81
2023-03-08T17:42:08.018Z,78.87
2023-03-08T17:44:34.947Z,81.36
2023-03-08T17:47:01.616Z,79.28
2023-03-08T17:49:39.869Z,78.76
2023-03-08T17:52:06.994Z,83.58
2023-03-08T17:54:33.398Z,81.26
2023-03-08T17:56:59.833Z,82.38
2023-03-08T17:59:26.197Z,84.14
2023-03-08T18:01:53.644Z,88.85
2023-03-08T18:04:32.578Z,100.00
2023-03-08T18:06:59.122Z,100.00
2023-03-08T18:09:25.740Z,100.00
2023-03-08T18:11:52.225Z,100.00
2023-03-08T18:14:18.713Z,100.00
2023-03-08T18:16:45.137Z,100.00
2023-03-08T18:19:15.556Z,100.00
2023-03-08T18:21:41.978Z,100.00
2023-03-08T18:24:12.116Z,100.00
2023-03-08T18:26:38.490Z,100.00
2023-03-08T18:29:04.902Z,100.00
2023-03-08T18:31:34.906Z,100.00
2023-03-08T18:34:01.976Z,100.00
2023-03-08T18:36:29.401Z,100.00
2023-03-08T18:38:55.827Z,100.00
2023-03-08T18:41:27.940Z,100.00
2023-03-08T18:44:17.258Z,100.00
2023-03-08T18:46:43.818Z,100.00
2023-03-08T18:49:12.401Z,100.00
2023-03-08T18:51:40.750Z,100.00
2023-03-08T18:54:09.204Z,100.00
2023-03-08T18:56:35.672Z,100.00
2023-03-08T18:59:05.255Z,100.00
2023-03-08T19:01:32.775Z,100.00
2023-03-08T19:04:12.537Z,100.00
2023-03-08T19:06:39.997Z,100.00
2023-03-08T19:09:21.698Z,100.00
2023-03-08T19:11:48.425Z,100.00
2023-03-08T19:14:16.398Z,100.00
2023-03-08T19:16:42.879Z,100.00
2023-03-08T19:19:12.146Z,100.00
2023-03-08T19:21:48.673Z,100.00
2023-03-08T19:24:17.795Z,100.00
2023-03-08T19:26:47.276Z,100.00
2023-03-08T19:29:14.977Z,100.00
2023-03-08T19:32:05.995Z,100.00
2023-03-08T19:34:41.496Z,100.00
2023-03-08T19:37:09.465Z,100.00
2023-03-08T19:39:39.784Z,100.00
2023-03-08T19:42:09.101Z,100.00
2023-03-08T19:44:35.780Z,100.00
2023-03-08T19:47:03.972Z,100.00
2023-03-08T19:49:32.856Z,100.00
2023-03-08T19:52:01.783Z,100.00
2023-03-08T19:54:29.016Z,100.00
2023-03-08T19:56:56.089Z,100.00
2023-03-08T19:59:36.609Z,100.00
2023-03-08T20:02:27.759Z,100.00
2023-03-08T20:04:54.177Z,100.00
2023-03-08T20:07:20.576Z,100.00
2023-03-08T20:09:47.026Z,100.00
2023-03-08T20:12:13.411Z,100.00
2023-03-08T20:14:39.870Z,100.00
2023-03-08T20:17:06.374Z,100.00
2023-03-08T20:19:46.176Z,100.00
2023-03-08T20:22:12.672Z,100.00
2023-03-08T20:24:44.954Z,100.00
2023-03-08T20:27:11.380Z,100.00
2023-03-08T20:29:37.886Z,100.00
2023-03-08T20:32:04.401Z,100.00
2023-03-08T20:34:33.475Z,100.00
2023-03-08T20:36:59.874Z,100.00
2023-03-08T20:39:36.455Z,100.00
2023-03-08T20:42:15.021Z,100.00
2023-03-08T20:44:44.082Z,100.00
2023-03-08T20:47:10.620Z,100.00
2023-03-08T20:49:37.508Z,100.00
2023-03-08T20:52:04.069Z,100.00
2023-03-08T20:54:30.485Z,100.00
2023-03-08T20:56:58.348Z,100.00
2023-03-08T20:59:51.951Z,100.00
2023-03-08T21:02:31.625Z,100.00
2023-03-08T21:04:58.061Z,100.00
2023-03-08T21:07:24.465Z,100.00
2023-03-08T21:09:50.846Z,100.00
2023-03-08T21:12:17.406Z,100.00
2023-03-08T21:14:44.190Z,100.00
2023-03-08T21:17:10.632Z,100.00
2023-03-08T21:19:37.039Z,100.00
2023-03-08T21:22:04.075Z,100.00
2023-03-08T21:24:30.711Z,100.00
2023-03-08T21:26:57.198Z,100.00
2023-03-08T21:29:25.128Z,100.00
2023-03-08T21:31:53.020Z,100.00
2023-03-08T21:34:20.373Z,100.00
2023-03-08T21:36:46.918Z,100.00
2023-03-08T21:39:13.762Z,100.00
2023-03-08T21:41:43.186Z,100.00
2023-03-08T21:44:13.647Z,100.00
2023-03-08T21:46:40.558Z,100.00
2023-03-08T21:49:07.860Z,100.00
2023-03-08T21:51:34.945Z,100.00
2023-03-08T21:54:01.391Z,100.00
2023-03-08T21:56:27.994Z,100.00
2023-03-08T21:58:56.428Z,100.00
2023-03-08T22:01:25.361Z,100.00
2023-03-08T22:03:51.913Z,100.00
2023-03-08T22:06:19.071Z,100.00
2023-03-08T22:08:49.237Z,100.00
2023-03-08T22:11:15.953Z,99.90
2023-03-08T22:13:42.979Z,99.00
2023-03-08T22:16:09.579Z,98.01
2023-03-08T22:18:36.019Z,98.50
2023-03-08T22:21:02.643Z,97.48
2023-03-08T22:23:29.175Z,97.16
2023-03-08T22:25:55.620Z,95.76
2023-03-08T22:28:22.167Z,94.90
2023-03-08T22:30:48.591Z,93.10
2023-03-08T22:33:15.189Z,95.14
2023-03-08T22:35:46.485Z,94.00
2023-03-08T22:38:13.065Z,94.65
2023-03-08T22:40:48.877Z,94.69
2023-03-08T22:43:15.422Z,94.22
2023-03-08T22:45:41.869Z,93.19
2023-03-08T22:48:09.147Z,93.10
2023-03-08T22:50:35.609Z,94.55
2023-03-08T22:53:02.092Z,95.84
2023-03-08T22:55:28.559Z,100.00
2023-03-08T22:57:54.941Z,100.00
2023-03-08T23:00:21.491Z,100.00
2023-03-08T23:02:48.535Z,100.00
2023-03-08T23:05:19.385Z,100.00
2023-03-08T23:08:06.751Z,100.00
2023-03-08T23:10:34.355Z,100.00
2023-03-08T23:13:01.240Z,100.00
2023-03-08T23:15:33.408Z,100.00
2023-03-08T23:17:59.955Z,100.00
2023-03-08T23:20:26.443Z,100.00
2023-03-08T23:22:52.962Z,100.00
2023-03-08T23:25:19.505Z,100.00
2023-03-08T23:27:45.904Z,100.00
2023-03-08T23:30:15.353Z,100.00
2023-03-08T23:32:44.715Z,100.00
2023-03-08T23:35:12.439Z,100.00
2023-03-08T23:37:40.451Z,100.00
2023-03-08T23:40:10.745Z,100.00
2023-03-08T23:42:38.073Z,100.00
2023-03-08T23:45:05.471Z,100.00
2023-03-08T23:47:32.189Z,100.00
2023-03-08T23:49:58.801Z,100.00
2023-03-08T23:52:25.518Z,100.00
2023-03-08T23:54:52.007Z,100.00
2023-03-08T23:57:18.582Z,100.00
2023-03-08T23:59:45.035Z,100.00
